Time;durP1;ratioP1;P1;durP2;ratioP2;P2;SDS_P1;SDS_P2;PMS_P1;PMS_P2;Temp;Humidity;BMP_temperature;BMP_pressure;BME280_temperature;BME280_humidity;BME280_pressure;Samples;Min_cycle;Max_cycle;Signal;HPM_P1;HPM_P2
2022/08/02 00:00:49;;;;;;;17.55;1.30;;;;;;;;;;5088403;28;20039;-73
2022/08/02 00:03:21;;;;;;;42.13;4.07;;;;;;;;;;5091520;28;20510;-76
2022/08/02 00:05:50;;;;;;;33.63;2.67;;;;;;;;;;5089038;28;20040;-68
2022/08/02 00:08:19;;;;;;;38.95;2.55;;;;;;;;;;5086964;28;20106;-75
2022/08/02 00:10:46;;;;;;;2.15;0.52;;;;;;;;;;5087593;28;20123;-75
2022/08/02 00:13:12;;;;;;;9.18;1.77;;;;;;;;;;5087535;28;20071;-73
2022/08/02 00:15:39;;;;;;;53.65;3.33;;;;;;;;;;5088092;28;20071;-71
2022/08/02 00:18:05;;;;;;;39.80;2.95;;;;;;;;;;5090986;28;20139;-67
2022/08/02 00:20:32;;;;;;;30.23;2.90;;;;;;;;;;5087147;28;20060;-69
2022/08/02 00:22:58;;;;;;;53.17;6.47;;;;;;;;;;5086670;28;20488;-69
2022/08/02 00:25:25;;;;;;;42.13;3.72;;;;;;;;;;5086945;28;20104;-69
2022/08/02 00:27:52;;;;;;;12.88;0.98;;;;;;;;;;5087603;28;20059;-69
2022/08/02 00:30:18;;;;;;;54.22;3.78;;;;;;;;;;5091144;28;20040;-68
2022/08/02 00:32:45;;;;;;;23.10;1.48;;;;;;;;;;5087574;28;20040;-69
2022/08/02 00:35:11;;;;;;;39.03;2.95;;;;;;;;;;5086951;28;20527;-73
2022/08/02 00:37:38;;;;;;;25.67;2.28;;;;;;;;;;5086733;28;20039;-70
2022/08/02 00:40:06;;;;;;;17.30;1.67;;;;;;;;;;5086981;28;20072;-72
2022/08/02 00:42:32;;;;;;;29.40;1.90;;;;;;;;;;5088973;28;20048;-72
2022/08/02 00:44:59;;;;;;;19.63;2.90;;;;;;;;;;5090136;28;20093;-71
2022/08/02 00:47:25;;;;;;;51.80;3.22;;;;;;;;;;5086242;28;20123;-71
2022/08/02 00:49:52;;;;;;;30.10;2.17;;;;;;;;;;5087031;28;20040;-70
2022/08/02 00:52:18;;;;;;;42.08;3.10;;;;;;;;;;5086276;28;20471;-69
2022/08/02 00:54:45;;;;;;;13.30;1.13;;;;;;;;;;5087453;28;20052;-70
2022/08/02 00:57:11;;;;;;;9.48;1.45;;;;;;;;;;5091528;28;20047;-69
2022/08/02 00:59:38;;;;;;;6.38;1.10;;;;;;;;;;5086992;28;20050;-70
2022/08/02 01:02:04;;;;;;;55.42;3.53;;;;;;;;;;5085607;28;20036;-70
2022/08/02 01:04:31;;;;;;;16.95;1.73;;;;;;;;;;5087052;28;20044;-68
2022/08/02 01:06:58;;;;;;;7.00;2.60;;;;;;;;;;5086856;28;20040;-67
2022/08/02 01:09:25;;;;;;;68.07;4.65;;;;;;;;;;5092510;28;20047;-67
2022/08/02 01:11:52;;;;;;;9.77;0.68;;;;;;;;;;5092895;28;20484;-70
2022/08/02 01:14:19;;;;;;;38.65;2.60;;;;;;;;;;5090488;28;20066;-72
2022/08/02 01:16:47;;;;;;;22.13;1.85;;;;;;;;;;5090873;28;20683;-72
2022/08/02 01:19:27;;;;;;;16.52;1.10;;;;;;;;;;5090264;28;20048;-70
2022/08/02 01:22:04;;;;;;;42.20;2.80;;;;;;;;;;5090224;28;20037;-67
2022/08/02 01:24:49;;;;;;;20.83;1.40;;;;;;;;;;5092841;28;20082;-66
2022/08/02 01:27:34;;;;;;;38.15;2.42;;;;;;;;;;5091148;28;20087;-69
2022/08/02 01:30:01;;;;;;;6.57;0.50;;;;;;;;;;5093900;28;20083;-66
2022/08/02 01:32:34;;;;;;;31.77;2.05;;;;;;;;;;5089754;28;20110;-66
2022/08/02 01:35:00;;;;;;;33.73;2.10;;;;;;;;;;5090722;28;20032;-66
2022/08/02 01:37:39;;;;;;;48.67;4.88;;;;;;;;;;5090134;28;20123;-66
2022/08/02 01:40:09;;;;;;;20.77;1.50;;;;;;;;;;5090772;28;20045;-71
2022/08/02 01:42:37;;;;;;;33.30;2.55;;;;;;;;;;5092016;28;20068;-70
2022/08/02 01:45:05;;;;;;;33.70;2.28;;;;;;;;;;5093402;28;20493;-68
2022/08/02 01:47:34;;;;;;;12.15;0.93;;;;;;;;;;5090182;28;20036;-76
2022/08/02 01:50:01;;;;;;;7.05;1.88;;;;;;;;;;5093894;28;20611;-74
2022/08/02 01:52:29;;;;;;;62.75;3.85;;;;;;;;;;5089389;28;20041;-74
2022/08/02 01:55:04;;;;;;;10.98;0.85;;;;;;;;;;5093798;28;20072;-73
2022/08/02 01:57:35;;;;;;;24.23;1.55;;;;;;;;;;5092319;28;20127;-74
2022/08/02 02:00:09;;;;;;;8.82;1.90;;;;;;;;;;5093764;28;20504;-73
2022/08/02 02:02:39;;;;;;;18.17;1.33;;;;;;;;;;5092221;28;20040;-73
2022/08/02 02:05:06;;;;;;;53.40;3.30;;;;;;;;;;5089428;28;20051;-74
2022/08/02 02:07:33;;;;;;;16.77;1.33;;;;;;;;;;5089649;28;20284;-74
2022/08/02 02:10:01;;;;;;;11.38;1.10;;;;;;;;;;5093681;28;20047;-72
2022/08/02 02:12:29;;;;;;;67.05;4.47;;;;;;;;;;5092649;28;20067;-78
2022/08/02 02:14:56;;;;;;;3.35;1.23;;;;;;;;;;5091588;28;20071;-74
2022/08/02 02:17:25;;;;;;;13.73;1.63;;;;;;;;;;5093057;28;20040;-69
2022/08/02 02:20:13;;;;;;;9.43;0.80;;;;;;;;;;5085003;28;20517;-70
2022/08/02 02:22:39;;;;;;;16.98;1.17;;;;;;;;;;5089141;28;20119;-75
2022/08/02 02:25:10;;;;;;;28.05;2.00;;;;;;;;;;5089539;28;20416;-80
2022/08/02 02:27:38;;;;;;;41.58;2.65;;;;;;;;;;5091005;28;20469;-70
2022/08/02 02:30:05;;;;;;;12.23;1.38;;;;;;;;;;5092197;28;20072;-69
2022/08/02 02:32:33;;;;;;;16.55;1.42;;;;;;;;;;5089609;28;20476;-72
2022/08/02 02:35:00;;;;;;;3.63;0.55;;;;;;;;;;5089454;28;20122;-78
2022/08/02 02:37:27;;;;;;;40.78;3.15;;;;;;;;;;5088829;28;20074;-72
2022/08/02 02:39:55;;;;;;;24.58;1.55;;;;;;;;;;5089372;28;20055;-73
2022/08/02 02:42:25;;;;;;;26.15;1.65;;;;;;;;;;5093128;28;20071;-72
2022/08/02 02:44:52;;;;;;;18.63;1.52;;;;;;;;;;5090335;28;20078;-72
2022/08/02 02:47:20;;;;;;;16.98;1.42;;;;;;;;;;5088939;28;20040;-75
2022/08/02 02:49:48;;;;;;;19.58;1.33;;;;;;;;;;5088051;28;20036;-76
2022/08/02 02:52:15;;;;;;;62.17;3.85;;;;;;;;;;5088563;28;20064;-66
2022/08/02 02:54:43;;;;;;;14.55;1.08;;;;;;;;;;5090532;28;20045;-66
2022/08/02 02:57:10;;;;;;;41.17;4.07;;;;;;;;;;5092886;28;20036;-72
2022/08/02 02:59:37;;;;;;;36.40;2.28;;;;;;;;;;5088585;28;20075;-76
2022/08/02 03:02:15;;;;;;;40.35;4.78;;;;;;;;;;5088487;28;20044;-74
2022/08/02 03:04:42;;;;;;;3.35;0.80;;;;;;;;;;5088851;28;20115;-75
2022/08/02 03:07:23;;;;;;;40.85;2.80;;;;;;;;;;5088519;28;20091;-74
2022/08/02 03:09:50;;;;;;;8.27;1.30;;;;;;;;;;5088737;28;20508;-78
2022/08/02 03:12:21;;;;;;;55.58;5.78;;;;;;;;;;5091663;28;20113;-74
2022/08/02 03:14:54;;;;;;;54.60;5.60;;;;;;;;;;5089995;28;20051;-74
2022/08/02 03:17:21;;;;;;;18.55;4.28;;;;;;;;;;5088973;28;20115;-71
2022/08/02 03:19:47;;;;;;;33.38;4.15;;;;;;;;;;5087240;28;20049;-71
2022/08/02 03:22:14;;;;;;;20.35;2.58;;;;;;;;;;5088352;28;20039;-71
2022/08/02 03:24:41;;;;;;;15.30;1.65;;;;;;;;;;5089653;28;20048;-71
2022/08/02 03:27:07;;;;;;;54.70;3.63;;;;;;;;;;5091306;28;20134;-73
2022/08/02 03:29:34;;;;;;;10.18;1.50;;;;;;;;;;5087947;28;20400;-72
2022/08/02 03:32:00;;;;;;;11.85;1.00;;;;;;;;;;5087342;28;20062;-72
2022/08/02 03:34:27;;;;;;;39.95;3.58;;;;;;;;;;5087975;28;20032;-72
2022/08/02 03:36:55;;;;;;;18.88;2.33;;;;;;;;;;5088627;28;20041;-72
2022/08/02 03:39:21;;;;;;;17.67;2.80;;;;;;;;;;5092168;28;20127;-72
2022/08/02 03:41:48;;;;;;;29.00;2.97;;;;;;;;;;5088288;28;20385;-72
2022/08/02 03:44:15;;;;;;;18.73;3.17;;;;;;;;;;5088205;28;20112;-72
2022/08/02 03:46:42;;;;;;;17.55;2.08;;;;;;;;;;5087834;28;20059;-72
2022/08/02 03:49:09;;;;;;;30.75;2.38;;;;;;;;;;5087641;28;20043;-72
2022/08/02 03:51:36;;;;;;;25.73;2.00;;;;;;;;;;5092010;28;20063;-71
2022/08/02 03:54:03;;;;;;;8.20;1.00;;;;;;;;;;5092329;28;20485;-71
2022/08/02 03:56:30;;;;;;;41.65;2.83;;;;;;;;;;5086033;28;20036;-71
2022/08/02 03:59:07;;;;;;;29.10;2.67;;;;;;;;;;5087357;28;20061;-71
2022/08/02 04:01:34;;;;;;;27.92;2.75;;;;;;;;;;5087826;28;20048;-72
2022/08/02 04:04:00;;;;;;;36.53;4.50;;;;;;;;;;5087827;28;20048;-72
2022/08/02 04:06:27;;;;;;;48.60;3.00;;;;;;;;;;5090922;28;20047;-72
2022/08/02 04:08:53;;;;;;;6.78;0.70;;;;;;;;;;5091336;28;20048;-73
2022/08/02 04:11:32;;;;;;;49.28;2.97;;;;;;;;;;5086937;28;20452;-73
2022/08/02 04:14:00;;;;;;;14.43;1.00;;;;;;;;;;5087612;28;20492;-75
2022/08/02 04:16:32;;;;;;;47.72;3.45;;;;;;;;;;5087032;28;20514;-75
2022/08/02 04:19:00;;;;;;;12.02;0.85;;;;;;;;;;5087597;28;20075;-72
2022/08/02 04:21:29;;;;;;;31.17;2.67;;;;;;;;;;5091364;28;20492;-72
2022/08/02 04:24:17;;;;;;;46.40;3.72;;;;;;;;;;5091376;28;20427;-72
2022/08/02 04:26:45;;;;;;;9.38;0.75;;;;;;;;;;5086858;28;20089;-73
2022/08/02 04:29:16;;;;;;;25.38;2.13;;;;;;;;;;5087002;28;20036;-75
2022/08/02 04:31:42;;;;;;;22.35;1.48;;;;;;;;;;5087231;28;20072;-72
2022/08/02 04:34:09;;;;;;;16.38;3.40;;;;;;;;;;5089279;28;20537;-71
2022/08/02 04:36:41;;;;;;;14.07;1.50;;;;;;;;;;5088762;28;20056;-70
2022/08/02 04:39:07;;;;;;;16.08;1.40;;;;;;;;;;5089860;28;20040;-71
2022/08/02 04:41:43;;;;;;;20.02;2.72;;;;;;;;;;5087134;28;20115;-70
2022/08/02 04:44:11;;;;;;;21.67;2.08;;;;;;;;;;5086254;28;20465;-68
2022/08/02 04:46:38;;;;;;;15.40;2.17;;;;;;;;;;5086806;28;20042;-65
2022/08/02 04:49:04;;;;;;;36.72;2.88;;;;;;;;;;5086642;28;20107;-67
2022/08/02 04:51:35;;;;;;;34.28;2.95;;;;;;;;;;5089749;28;20591;-65
2022/08/02 04:54:04;;;;;;;17.33;2.25;;;;;;;;;;5089259;28;20485;-68
2022/08/02 04:56:35;;;;;;;56.33;4.80;;;;;;;;;;5086717;28;20066;-68
2022/08/02 04:59:02;;;;;;;10.32;0.98;;;;;;;;;;5086620;28;20202;-68
2022/08/02 05:01:28;;;;;;;24.08;1.73;;;;;;;;;;5087106;28;20036;-65
2022/08/02 05:03:55;;;;;;;41.70;3.40;;;;;;;;;;5086624;28;20059;-63
2022/08/02 05:06:21;;;;;;;24.05;2.00;;;;;;;;;;5091405;28;20055;-62
2022/08/02 05:08:48;;;;;;;1.83;0.85;;;;;;;;;;5086423;28;20074;-63
2022/08/02 05:11:18;;;;;;;31.20;4.03;;;;;;;;;;5086829;28;20058;-63
2022/08/02 05:13:45;;;;;;;18.30;1.42;;;;;;;;;;5086312;28;20153;-63
2022/08/02 05:16:25;;;;;;;36.97;5.13;;;;;;;;;;5086623;28;20032;-63
2022/08/02 05:18:57;;;;;;;24.67;1.75;;;;;;;;;;5086576;28;20049;-67
2022/08/02 05:21:24;;;;;;;19.63;1.52;;;;;;;;;;5090747;28;20063;-66
2022/08/02 05:23:50;;;;;;;42.28;3.28;;;;;;;;;;5086317;28;20486;-67
2022/08/02 05:26:17;;;;;;;31.42;2.42;;;;;;;;;;5086352;28;20135;-66
2022/08/02 05:28:43;;;;;;;25.75;3.10;;;;;;;;;;5089384;28;20396;-66
2022/08/02 05:31:10;;;;;;;39.75;2.75;;;;;;;;;;5086087;28;20119;-66
2022/08/02 05:33:38;;;;;;;25.13;1.83;;;;;;;;;;5088385;28;20545;-66
2022/08/02 05:36:05;;;;;;;21.27;1.90;;;;;;;;;;5089510;28;20142;-68
2022/08/02 05:38:32;;;;;;;28.80;2.22;;;;;;;;;;5085532;28;20588;-69
2022/08/02 05:41:02;;;;;;;14.65;1.80;;;;;;;;;;5086295;28;20044;-64
2022/08/02 05:43:29;;;;;;;33.85;2.40;;;;;;;;;;5086486;28;20036;-69
2022/08/02 05:45:56;;;;;;;38.38;3.78;;;;;;;;;;5085883;28;20127;-69
2022/08/02 05:48:22;;;;;;;26.75;2.05;;;;;;;;;;5090845;28;20128;-70
2022/08/02 05:51:01;;;;;;;6.35;1.27;;;;;;;;;;5088018;28;20147;-66
2022/08/02 05:53:44;;;;;;;29.63;2.22;;;;;;;;;;5085604;28;20044;-73
2022/08/02 05:56:28;;;;;;;13.68;1.30;;;;;;;;;;5090179;28;20539;-68
2022/08/02 05:59:00;;;;;;;5.63;0.70;;;;;;;;;;5090055;28;20131;-61
2022/08/02 06:01:31;;;;;;;15.93;1.77;;;;;;;;;;5090062;28;20233;-63
2022/08/02 06:03:59;;;;;;;16.02;1.48;;;;;;;;;;5089912;28;20054;-67
2022/08/02 06:06:25;;;;;;;31.23;2.28;;;;;;;;;;5093583;28;20089;-66
2022/08/02 06:09:05;;;;;;;14.32;1.20;;;;;;;;;;5088889;28;20488;-69
2022/08/02 06:11:34;;;;;;;27.63;2.92;;;;;;;;;;5089013;28;20039;-66
2022/08/02 06:14:02;;;;;;;14.32;2.13;;;;;;;;;;5089150;28;20068;-66
2022/08/02 06:16:29;;;;;;;43.55;2.95;;;;;;;;;;5089257;28;20040;-66
2022/08/02 06:18:59;;;;;;;15.10;1.30;;;;;;;;;;5090111;28;20068;-67
2022/08/02 06:21:26;;;;;;;20.25;1.60;;;;;;;;;;5093742;28;20474;-68
2022/08/02 06:24:16;;;;;;;7.13;0.75;;;;;;;;;;5093297;28;20043;-61
2022/08/02 06:26:43;;;;;;;24.17;1.83;;;;;;;;;;5089242;28;20059;-58
2022/08/02 06:29:11;;;;;;;39.10;2.72;;;;;;;;;;5089288;28;20718;-58
2022/08/02 06:31:39;;;;;;;32.53;2.33;;;;;;;;;;5088881;28;20111;-58
2022/08/02 06:34:06;;;;;;;21.85;1.75;;;;;;;;;;5088086;28;20123;-58
2022/08/02 06:36:33;;;;;;;45.10;3.08;;;;;;;;;;5091957;28;20040;-59
2022/08/02 06:39:19;;;;;;;5.35;0.60;;;;;;;;;;5091303;28;20086;-59
2022/08/02 06:41:47;;;;;;;21.30;1.77;;;;;;;;;;5089199;28;20095;-59
2022/08/02 06:44:21;;;;;;;14.23;1.23;;;;;;;;;;5088249;28;20048;-58
2022/08/02 06:47:08;;;;;;;1.60;0.40;;;;;;;;;;5088039;28;20031;-58
2022/08/02 06:49:39;;;;;;;11.85;1.02;;;;;;;;;;5088675;28;20443;-60
2022/08/02 06:52:20;;;;;;;47.53;3.33;;;;;;;;;;5088970;28;20118;-58
2022/08/02 06:54:54;;;;;;;24.60;1.83;;;;;;;;;;5089770;28;20033;-59
2022/08/02 06:57:20;;;;;;;34.35;2.63;;;;;;;;;;5089173;28;20098;-59
2022/08/02 06:59:47;;;;;;;5.50;0.73;;;;;;;;;;5088771;28;20079;-59
2022/08/02 07:02:13;;;;;;;15.75;1.33;;;;;;;;;;5088888;28;20479;-59
2022/08/02 07:04:40;;;;;;;53.13;3.58;;;;;;;;;;5087996;28;20094;-58
2022/08/02 07:07:07;;;;;;;35.95;3.38;;;;;;;;;;5088693;28;20532;-58
2022/08/02 07:09:33;;;;;;;25.67;2.20;;;;;;;;;;5091787;28;20097;-58
2022/08/02 07:12:00;;;;;;;29.08;2.10;;;;;;;;;;5090397;28;20045;-59
2022/08/02 07:14:27;;;;;;;11.80;1.25;;;;;;;;;;5088593;28;20066;-59
2022/08/02 07:16:53;;;;;;;24.65;2.00;;;;;;;;;;5087688;28;20048;-57
2022/08/02 07:19:20;;;;;;;36.85;2.60;;;;;;;;;;5088338;28;20444;-58
2022/08/02 07:21:47;;;;;;;21.08;1.75;;;;;;;;;;5089484;28;20374;-64
2022/08/02 07:24:26;;;;;;;41.53;3.03;;;;;;;;;;5088881;28;20052;-64
2022/08/02 07:26:52;;;;;;;38.85;2.70;;;;;;;;;;5091020;28;20540;-65
2022/08/02 07:29:37;;;;;;;36.22;3.03;;;;;;;;;;5088022;28;20040;-64
2022/08/02 07:32:15;;;;;;;42.97;2.97;;;;;;;;;;5088007;28;20043;-62
2022/08/02 07:34:42;;;;;;;16.42;1.38;;;;;;;;;;5088248;28;20423;-63
2022/08/02 07:37:17;;;;;;;35.17;2.50;;;;;;;;;;5088123;28;20044;-64
2022/08/02 07:40:01;;;;;;;30.95;2.25;;;;;;;;;;5088146;28;20504;-64
2022/08/02 07:42:31;;;;;;;53.22;3.70;;;;;;;;;;5091407;28;20555;-64
2022/08/02 07:44:58;;;;;;;3.67;1.00;;;;;;;;;;5089119;28;20549;-66
2022/08/02 07:47:24;;;;;;;43.88;3.45;;;;;;;;;;5087611;28;20070;-63
2022/08/02 07:49:51;;;;;;;10.95;1.58;;;;;;;;;;5087714;28;20115;-64
2022/08/02 07:52:18;;;;;;;27.35;2.53;;;;;;;;;;5087440;28;20522;-63
2022/08/02 07:54:44;;;;;;;53.85;3.70;;;;;;;;;;5089736;28;20476;-62
2022/08/02 07:57:11;;;;;;;33.85;2.42;;;;;;;;;;5091229;28;20055;-61
2022/08/02 07:59:38;;;;;;;8.55;0.93;;;;;;;;;;5087793;28;20115;-60
2022/08/02 08:02:04;;;;;;;22.95;1.77;;;;;;;;;;5087185;28;20040;-62
2022/08/02 08:04:31;;;;;;;14.85;1.27;;;;;;;;;;5087762;28;20474;-64
2022/08/02 08:06:58;;;;;;;47.00;3.30;;;;;;;;;;5087537;28;20437;-65
2022/08/02 08:09:25;;;;;;;17.08;1.45;;;;;;;;;;5092051;28;20040;-65
2022/08/02 08:11:51;;;;;;;22.50;1.70;;;;;;;;;;5087729;28;20126;-64
2022/08/02 08:14:18;;;;;;;36.15;2.63;;;;;;;;;;5087625;28;20567;-65
2022/08/02 08:16:44;;;;;;;44.10;3.13;;;;;;;;;;5086788;28;20158;-65
2022/08/02 08:19:11;;;;;;;10.88;1.05;;;;;;;;;;5091294;28;20047;-64
2022/08/02 08:21:37;;;;;;;69.50;4.65;;;;;;;;;;5089944;28;20109;-64
2022/08/02 08:24:04;;;;;;;53.83;3.88;;;;;;;;;;5089115;28;20441;-64
2022/08/02 08:26:31;;;;;;;38.53;2.72;;;;;;;;;;5085113;28;20101;-64
2022/08/02 08:28:57;;;;;;;31.80;2.75;;;;;;;;;;5085625;28;20085;-65
2022/08/02 08:31:24;;;;;;;50.80;4.10;;;;;;;;;;5086139;28;20093;-65
2022/08/02 08:33:51;;;;;;;26.58;2.10;;;;;;;;;;5086085;28;20032;-65
2022/08/02 08:36:17;;;;;;;52.47;3.72;;;;;;;;;;5089355;28;20507;-64
2022/08/02 08:38:44;;;;;;;35.28;3.45;;;;;;;;;;5085053;28;20046;-64
2022/08/02 08:41:11;;;;;;;37.83;2.80;;;;;;;;;;5084479;28;20480;-64
2022/08/02 08:43:37;;;;;;;73.88;5.07;;;;;;;;;;5083513;28;20572;-64
2022/08/02 08:46:04;;;;;;;43.45;3.22;;;;;;;;;;5084331;28;20028;-64
2022/08/02 08:48:31;;;;;;;32.05;2.50;;;;;;;;;;5090161;28;20072;-64
2022/08/02 08:51:09;;;;;;;38.53;2.90;;;;;;;;;;5087264;28;20456;-65
2022/08/02 08:53:38;;;;;;;21.65;2.38;;;;;;;;;;5086025;28;20119;-64
2022/08/02 08:56:06;;;;;;;16.38;2.30;;;;;;;;;;5086458;28;20035;-64
2022/08/02 08:58:33;;;;;;;19.65;1.83;;;;;;;;;;5081734;28;20040;-64
2022/08/02 09:00:59;;;;;;;19.73;1.75;;;;;;;;;;5089904;28;20543;-64
2022/08/02 09:03:26;;;;;;;28.58;2.17;;;;;;;;;;5091681;28;20039;-63
2022/08/02 09:05:59;;;;;;;17.45;1.70;;;;;;;;;;5088628;28;20495;-63
2022/08/02 09:08:26;;;;;;;12.88;1.20;;;;;;;;;;5086428;28;20071;-64
2022/08/02 09:10:54;;;;;;;24.65;2.42;;;;;;;;;;5086205;28;20044;-62
2022/08/02 09:13:28;;;;;;;33.00;2.55;;;;;;;;;;5086705;28;20119;-63
2022/08/02 09:16:11;;;;;;;47.13;3.63;;;;;;;;;;5085882;28;20043;-68
2022/08/02 09:18:44;;;;;;;26.67;2.05;;;;;;;;;;5091013;28;20102;-61
2022/08/02 09:21:13;;;;;;;16.10;1.55;;;;;;;;;;5091292;28;20408;-60
2022/08/02 09:23:44;;;;;;;34.60;2.75;;;;;;;;;;5088557;28;20119;-61
2022/08/02 09:26:21;;;;;;;15.65;1.70;;;;;;;;;;5090428;28;20127;-60
2022/08/02 09:28:51;;;;;;;62.00;4.60;;;;;;;;;;5090502;28;20119;-62
2022/08/02 09:31:21;;;;;;;13.98;1.63;;;;;;;;;;5094341;28;20513;-62
2022/08/02 09:33:53;;;;;;;10.80;1.20;;;;;;;;;;5092161;28;22946;-61
2022/08/02 09:36:20;;;;;;;32.83;2.88;;;;;;;;;;5094616;28;20519;-65
2022/08/02 09:39:02;;;;;;;12.80;1.10;;;;;;;;;;5089933;28;20119;-62
2022/08/02 09:41:31;;;;;;;51.88;3.72;;;;;;;;;;5090176;28;20071;-62
2022/08/02 09:43:58;;;;;;;13.98;1.63;;;;;;;;;;5090230;28;20040;-62
2022/08/02 09:46:32;;;;;;;18.67;1.75;;;;;;;;;;5090205;28;20039;-62
2022/08/02 09:49:00;;;;;;;24.67;2.28;;;;;;;;;;5090264;28;20652;-62
2022/08/02 09:51:28;;;;;;;19.08;2.38;;;;;;;;;;5095155;28;20044;-62
2022/08/02 09:53:56;;;;;;;13.93;1.50;;;;;;;;;;5090492;28;20085;-62
2022/08/02 09:56:42;;;;;;;6.95;1.10;;;;;;;;;;5094107;28;20066;-62
2022/08/02 09:59:08;;;;;;;14.23;1.45;;;;;;;;;;5089582;28;20028;-62
2022/08/02 10:01:36;;;;;;;32.25;2.88;;;;;;;;;;5089907;28;20460;-61
2022/08/02 10:04:06;;;;;;;23.58;2.00;;;;;;;;;;5090115;28;20037;-62
2022/08/02 10:06:33;;;;;;;47.75;3.45;;;;;;;;;;5093586;28;20062;-61
2022/08/02 10:09:01;;;;;;;21.08;2.38;;;;;;;;;;5091075;28;20119;-62
2022/08/02 10:11:28;;;;;;;21.70;2.10;;;;;;;;;;5089664;28;20105;-62
2022/08/02 10:13:54;;;;;;;15.25;1.67;;;;;;;;;;5089485;28;20110;-62
2022/08/02 10:16:24;;;;;;;20.40;1.98;;;;;;;;;;5089620;28;20445;-62
2022/08/02 10:19:00;;;;;;;18.15;1.85;;;;;;;;;;5090932;28;20040;-61
2022/08/02 10:21:39;;;;;;;27.95;3.00;;;;;;;;;;5093003;28;20032;-61
2022/08/02 10:24:13;;;;;;;16.50;1.33;;;;;;;;;;5092475;28;20459;-62
2022/08/02 10:26:41;;;;;;;40.63;2.75;;;;;;;;;;5089217;28;20526;-62
2022/08/02 10:29:09;;;;;;;4.70;0.57;;;;;;;;;;5089404;28;20127;-61
2022/08/02 11:13:25;;;;;;;35.70;2.45;;;;;;;;;;5047369;28;20420;-63
2022/08/02 11:16:00;;;;;;;21.85;1.48;;;;;;;;;;5047869;28;20045;-63
2022/08/02 11:18:45;;;;;;;33.78;2.30;;;;;;;;;;5047241;28;20044;-62
2022/08/02 11:21:22;;;;;;;38.35;2.65;;;;;;;;;;5047072;28;20053;-63
2022/08/02 11:23:49;;;;;;;45.00;3.00;;;;;;;;;;5047808;28;20045;-63
2022/08/02 11:26:27;;;;;;;30.15;2.22;;;;;;;;;;5047447;28;20084;-63
2022/08/02 11:28:54;;;;;;;25.08;1.65;;;;;;;;;;5048085;28;20453;-62
2022/08/02 11:31:21;;;;;;;8.85;0.93;;;;;;;;;;5046371;28;20069;-63
2022/08/02 11:33:48;;;;;;;33.78;2.28;;;;;;;;;;5046977;28;20521;-63
2022/08/02 11:36:15;;;;;;;35.28;2.28;;;;;;;;;;5047023;28;20106;-63
2022/08/02 11:38:42;;;;;;;29.30;2.10;;;;;;;;;;5047354;28;20064;-63
2022/08/02 11:41:09;;;;;;;28.92;2.00;;;;;;;;;;5047844;28;20395;-63
2022/08/02 11:43:36;;;;;;;31.88;2.05;;;;;;;;;;5047406;28;20041;-63
2022/08/02 11:46:03;;;;;;;9.10;0.77;;;;;;;;;;5047162;28;20095;-63
2022/08/02 11:48:34;;;;;;;13.38;1.10;;;;;;;;;;5046721;28;20045;-63
2022/08/02 11:51:15;;;;;;;47.00;3.28;;;;;;;;;;5046798;28;20124;-62
2022/08/02 11:53:43;;;;;;;125.95;7.95;;;;;;;;;;5046199;28;20040;-62
2022/08/02 11:56:09;;;;;;;41.70;2.78;;;;;;;;;;5037020;28;20510;-64
2022/08/02 11:59:03;;;;;;;22.70;1.67;;;;;;;;;;5033935;28;20099;-63
2022/08/02 12:01:34;;;;;;;50.13;3.30;;;;;;;;;;5033074;28;20076;-63
2022/08/02 12:04:14;;;;;;;23.17;1.73;;;;;;;;;;5033244;28;20045;-62
2022/08/02 12:06:41;;;;;;;14.43;1.08;;;;;;;;;;5033700;28;20037;-62
2022/08/02 12:09:09;;;;;;;17.77;1.42;;;;;;;;;;5028016;28;20646;-62
2022/08/02 12:11:47;;;;;;;23.60;1.75;;;;;;;;;;5033295;28;20163;-64
2022/08/02 12:14:13;;;;;;;84.03;5.22;;;;;;;;;;5032209;28;20132;-63
2022/08/02 12:19:26;;;;;;;43.80;3.00;;;;;;;;;;5033355;28;20041;-63
2022/08/02 12:22:09;;;;;;;55.45;3.60;;;;;;;;;;5032819;28;20140;-63
2022/08/02 12:24:37;;;;;;;39.00;2.60;;;;;;;;;;5031432;28;20049;-65
2022/08/02 12:27:04;;;;;;;24.17;1.75;;;;;;;;;;5031409;28;20117;-63
2022/08/02 12:29:30;;;;;;;24.27;1.70;;;;;;;;;;5032401;28;20132;-62
2022/08/02 12:32:22;;;;;;;11.88;0.88;;;;;;;;;;5032265;28;20147;-63
2022/08/02 12:34:59;;;;;;;31.43;2.30;;;;;;;;;;5032022;28;20385;-65
2022/08/02 12:37:26;;;;;;;46.35;3.05;;;;;;;;;;5032642;28;20290;-65
2022/08/02 12:39:52;;;;;;;34.60;2.38;;;;;;;;;;5031310;28;20037;-64
2022/08/02 12:42:19;;;;;;;34.50;2.38;;;;;;;;;;5032194;28;20383;-65
2022/08/02 12:44:53;;;;;;;45.88;3.15;;;;;;;;;;5032426;28;20041;-63
2022/08/02 12:47:20;;;;;;;12.68;1.00;;;;;;;;;;5031084;28;20045;-63
2022/08/02 12:50:06;;;;;;;26.77;1.85;;;;;;;;;;5033168;28;20041;-63
2022/08/02 12:52:32;;;;;;;6.28;0.63;;;;;;;;;;5032354;28;20037;-63
2022/08/02 12:54:59;;;;;;;13.48;1.10;;;;;;;;;;5032205;28;20069;-65
2022/08/02 12:57:25;;;;;;;62.28;4.03;;;;;;;;;;5029013;28;20060;-64
2022/08/02 12:59:52;;;;;;;14.85;1.25;;;;;;;;;;5027184;28;20113;-65
2022/08/02 13:02:19;;;;;;;31.70;2.25;;;;;;;;;;5030538;28;20041;-65
2022/08/02 13:04:47;;;;;;;47.05;2.97;;;;;;;;;;5032635;28;20076;-65
2022/08/02 13:07:16;;;;;;;6.80;0.65;;;;;;;;;;5031293;28;20045;-65
2022/08/02 13:09:46;;;;;;;26.80;1.85;;;;;;;;;;5030305;28;20042;-66
2022/08/02 13:12:13;;;;;;;40.03;2.78;;;;;;;;;;5031748;28;20058;-65
2022/08/02 13:14:41;;;;;;;17.08;1.40;;;;;;;;;;5031972;28;20033;-63
2022/08/02 13:17:11;;;;;;;20.75;1.52;;;;;;;;;;5031816;28;20056;-65
2022/08/02 13:19:37;;;;;;;20.60;1.42;;;;;;;;;;5032567;28;20049;-64
2022/08/02 13:22:04;;;;;;;15.13;1.35;;;;;;;;;;5031787;28;20407;-63
2022/08/02 13:24:31;;;;;;;52.95;3.60;;;;;;;;;;5031466;28;20454;-64
2022/08/02 13:27:18;;;;;;;22.38;1.60;;;;;;;;;;5025883;28;20403;-65
2022/08/02 13:29:47;;;;;;;35.58;2.33;;;;;;;;;;5018564;28;20142;-64
2022/08/02 13:32:14;;;;;;;28.58;2.00;;;;;;;;;;5031770;28;20073;-64
2022/08/02 13:34:42;;;;;;;17.33;1.40;;;;;;;;;;5032304;28;20491;-65
2022/08/02 13:37:08;;;;;;;11.52;1.05;;;;;;;;;;5031433;28;20117;-64
2022/08/02 13:39:35;;;;;;;33.08;2.22;;;;;;;;;;5031316;28;20124;-65
2022/08/02 13:42:01;;;;;;;14.68;1.13;;;;;;;;;;5030848;28;20464;-65
2022/08/02 13:44:28;;;;;;;9.45;0.75;;;;;;;;;;5031773;28;20087;-65
2022/08/02 13:46:54;;;;;;;42.50;2.85;;;;;;;;;;5027411;28;20045;-65
2022/08/02 13:49:21;;;;;;;13.30;1.15;;;;;;;;;;5031240;28;20120;-65
2022/08/02 13:52:07;;;;;;;26.55;1.90;;;;;;;;;;5031094;28;20068;-65
2022/08/02 13:54:34;;;;;;;20.95;3.85;;;;;;;;;;5030940;28;20034;-65
2022/08/02 13:57:01;;;;;;;12.85;3.25;;;;;;;;;;5031224;28;20057;-64
2022/08/02 13:59:27;;;;;;;32.28;4.10;;;;;;;;;;5031264;28;20120;-65
2022/08/02 14:02:14;;;;;;;41.45;5.10;;;;;;;;;;5030883;28;20037;-65
2022/08/02 14:04:44;;;;;;;101.05;8.23;;;;;;;;;;5031675;28;20559;-65
2022/08/02 14:07:10;;;;;;;20.92;3.53;;;;;;;;;;5031454;28;20072;-65
2022/08/02 14:09:37;;;;;;;16.60;3.47;;;;;;;;;;5030777;28;20056;-65
2022/08/02 14:12:06;;;;;;;137.55;11.00;;;;;;;;;;5030246;28;20064;-65
2022/08/02 14:14:32;;;;;;;21.70;3.60;;;;;;;;;;5031003;28;20117;-65
2022/08/02 14:16:59;;;;;;;25.27;3.75;;;;;;;;;;5031412;28;20053;-65
2022/08/02 14:19:27;;;;;;;44.65;4.97;;;;;;;;;;5030693;28;20129;-65
2022/08/02 14:21:53;;;;;;;41.95;4.85;;;;;;;;;;5030859;28;20083;-65
2022/08/02 14:24:40;;;;;;;54.70;5.63;;;;;;;;;;5030131;28;20029;-65
2022/08/02 14:27:07;;;;;;;30.98;4.15;;;;;;;;;;5029318;28;20053;-65
2022/08/02 14:29:33;;;;;;;32.80;3.90;;;;;;;;;;5030608;28;20132;-65
2022/08/02 14:32:00;;;;;;;65.85;6.57;;;;;;;;;;5030578;28;20041;-65
2022/08/02 14:34:27;;;;;;;25.20;4.38;;;;;;;;;;5031530;28;20124;-65
2022/08/02 14:36:54;;;;;;;22.45;4.63;;;;;;;;;;5030300;28;20586;-65
2022/08/02 14:39:21;;;;;;;96.30;8.20;;;;;;;;;;5028075;28;20044;-65
2022/08/02 14:41:47;;;;;;;27.48;4.10;;;;;;;;;;5030052;28;20164;-65
2022/08/02 14:44:25;;;;;;;32.30;3.88;;;;;;;;;;5030987;28;20029;-65
2022/08/02 14:46:52;;;;;;;34.22;4.38;;;;;;;;;;5030838;28;20132;-65
2022/08/02 14:49:19;;;;;;;92.63;8.40;;;;;;;;;;5028338;28;20400;-65
2022/08/02 14:51:55;;;;;;;36.58;4.00;;;;;;;;;;5030337;28;20044;-65
2022/08/02 14:54:22;;;;;;;16.98;3.28;;;;;;;;;;5030073;28;20067;-65
2022/08/02 14:56:59;;;;;;;41.60;6.65;;;;;;;;;;5028516;28;20045;-64
2022/08/02 14:59:26;;;;;;;87.28;7.68;;;;;;;;;;5028515;28;20077;-65
2022/08/02 15:01:53;;;;;;;42.47;4.82;;;;;;;;;;5028787;28;20076;-65
2022/08/02 15:04:20;;;;;;;58.33;5.32;;;;;;;;;;5028288;28;20518;-65
2022/08/02 15:06:46;;;;;;;68.53;6.43;;;;;;;;;;5027877;28;20044;-65
2022/08/02 15:09:13;;;;;;;40.00;4.72;;;;;;;;;;5028442;28;20076;-65
2022/08/02 15:11:39;;;;;;;26.27;3.40;;;;;;;;;;5027717;28;20116;-65
2022/08/02 15:14:17;;;;;;;41.88;4.75;;;;;;;;;;5030326;28;20120;-65
2022/08/02 15:16:55;;;;;;;30.25;3.88;;;;;;;;;;5030581;28;20052;-65
2022/08/02 15:19:24;;;;;;;43.58;4.75;;;;;;;;;;5029892;28;20076;-65
2022/08/02 15:22:07;;;;;;;26.55;3.53;;;;;;;;;;5029925;28;20053;-65
2022/08/02 15:24:33;;;;;;;56.80;5.50;;;;;;;;;;5029843;28;20034;-66
2022/08/02 15:27:00;;;;;;;23.45;3.35;;;;;;;;;;5030281;28;20042;-65
2022/08/02 15:29:27;;;;;;;51.53;5.90;;;;;;;;;;5030449;28;20056;-65